Time;durP1;ratioP1;P1;durP2;ratioP2;P2;SDS_P1;SDS_P2;PMS_P1;PMS_P2;Temp;Humidity;BMP_temperature;BMP_pressure;BME280_temperature;BME280_humidity;BME280_pressure;Samples;Min_cycle;Max_cycle;Signal;HPM_P1;HPM_P2
2022/11/11 00:01:53;;;;;;;11.23;6.83;;;;;;;9.06;100.00;102775.00;5297544;28;20039;-75
2022/11/11 00:04:24;;;;;;;14.90;7.13;;;;;;;9.00;100.00;102776.03;5298612;28;20549;-75
2022/11/11 00:06:55;;;;;;;13.13;7.97;;;;;;;9.05;100.00;102773.28;5297949;28;20494;-75
2022/11/11 00:09:26;;;;;;;10.67;7.50;;;;;;;9.04;100.00;102787.28;5298243;28;20127;-75
2022/11/11 00:11:58;;;;;;;13.17;8.03;;;;;;;9.11;100.00;102786.22;5298253;28;20121;-75
2022/11/11 00:14:29;;;;;;;11.90;8.10;;;;;;;9.05;100.00;102773.28;5297158;28;20035;-75
2022/11/11 00:25:52;;;;;;;15.90;10.20;;;;;;;9.11;100.00;102774.91;5297606;28;20478;-75
2022/11/11 00:29:03;;;;;;;18.43;9.40;;;;;;;9.28;100.00;102785.00;5296763;28;20031;-74
2022/11/11 00:35:52;;;;;;;11.63;9.87;;;;;;;9.12;100.00;102785.34;5297789;28;20414;-75
2022/11/11 00:37:35;;;;;;;14.50;10.33;;;;;;;9.06;100.00;102780.22;5297278;28;20039;-74
2022/11/11 00:40:08;;;;;;;17.87;10.63;;;;;;;9.11;100.00;102778.38;5279357;28;20036;-75
2022/11/11 00:42:40;;;;;;;16.57;10.40;;;;;;;9.16;100.00;102786.13;5296996;28;20047;-75
2022/11/11 00:45:11;;;;;;;14.70;10.87;;;;;;;9.17;100.00;102793.94;5295018;28;20024;-74
2022/11/11 00:53:25;;;;;;;18.67;11.10;;;;;;;9.22;100.00;102811.25;5297623;28;20044;-74
2022/11/11 00:55:56;;;;;;;19.05;10.60;;;;;;;9.20;100.00;102800.84;5297106;28;20042;-75
2022/11/11 00:58:28;;;;;;;12.23;10.47;;;;;;;9.20;100.00;102799.09;5278234;28;20032;-75
2022/11/11 01:00:59;;;;;;;13.23;11.17;;;;;;;9.22;100.00;102808.63;5297206;28;20051;-74
2022/11/11 01:03:30;;;;;;;15.77;11.10;;;;;;;9.18;100.00;102792.19;5296905;28;20059;-74
2022/11/11 01:06:03;;;;;;;16.30;10.90;;;;;;;9.28;100.00;102808.53;5299099;28;20039;-75
2022/11/11 01:08:34;;;;;;;14.10;10.90;;;;;;;9.22;100.00;102808.63;5298425;28;20040;-75
2022/11/11 01:11:18;;;;;;;14.67;10.33;;;;;;;9.26;100.00;102821.63;5278136;28;20020;-75
2022/11/11 01:13:50;;;;;;;17.30;11.63;;;;;;;9.29;100.00;102813.72;5295597;28;20040;-75
2022/11/11 01:16:25;;;;;;;14.73;10.93;;;;;;;9.29;100.00;102825.91;5296674;28;20607;-75
2022/11/11 01:18:57;;;;;;;17.87;11.07;;;;;;;9.20;100.00;102808.69;5278735;28;20422;-75
2022/11/11 01:21:28;;;;;;;14.80;11.60;;;;;;;9.22;100.00;102817.34;5278183;28;20028;-75
2022/11/11 01:24:00;;;;;;;16.83;11.70;;;;;;;9.27;100.00;102817.25;5296530;28;20020;-75
2022/11/11 01:26:31;;;;;;;16.30;10.90;;;;;;;9.28;100.00;102818.97;5295819;28;20058;-75
2022/11/11 01:29:02;;;;;;;16.23;11.93;;;;;;;9.26;100.00;102807.69;5294601;28;20532;-75
2022/11/11 01:31:33;;;;;;;20.70;11.03;;;;;;;9.28;100.00;102811.13;5295899;28;20039;-75
2022/11/11 01:34:05;;;;;;;16.30;12.17;;;;;;;9.28;100.00;102811.13;5295905;28;20028;-74
2022/11/11 01:36:36;;;;;;;15.00;12.27;;;;;;;9.27;100.00;102804.16;5296459;28;20028;-75
2022/11/11 01:39:08;;;;;;;17.23;12.03;;;;;;;9.30;100.00;102811.97;5277628;28;20061;-75
2022/11/11 01:41:39;;;;;;;19.30;12.00;;;;;;;9.31;100.00;102811.06;5295491;28;20028;-75
2022/11/11 01:44:10;;;;;;;15.53;11.83;;;;;;;9.39;100.00;102813.50;5295101;28;20059;-75
2022/11/11 01:46:47;;;;;;;15.57;12.40;;;;;;;9.32;100.00;102810.16;5295937;28;20043;-75
2022/11/11 01:49:31;;;;;;;14.40;11.47;;;;;;;9.31;100.00;102795.38;5296642;28;20036;-75
2022/11/11 01:52:16;;;;;;;16.77;12.00;;;;;;;9.34;100.00;102789.22;5296276;28;20035;-75
2022/11/11 01:54:51;;;;;;;19.05;11.38;;;;;;;9.34;100.00;102792.69;5295420;28;20282;-74
2022/11/11 01:57:31;;;;;;;18.00;12.80;;;;;;;9.31;100.00;102787.53;5296464;28;20068;-74
2022/11/11 02:00:10;;;;;;;20.50;13.33;;;;;;;9.30;100.00;102784.03;5294508;28;20043;-75
2022/11/11 02:02:49;;;;;;;17.97;12.40;;;;;;;9.32;100.00;102791.84;5295962;28;20925;-74
2022/11/11 02:08:30;;;;;;;29.87;13.20;;;;;;;9.26;100.00;102795.47;5295848;28;20032;-75
2022/11/11 02:11:15;;;;;;;20.90;13.50;;;;;;;9.31;100.00;102803.22;5295361;28;20113;-75
2022/11/11 02:16:36;;;;;;;17.77;12.03;;;;;;;9.29;100.00;102789.31;5253217;28;20041;-74
2022/11/11 02:19:07;;;;;;;18.37;12.00;;;;;;;9.25;100.00;102792.91;5252020;28;20029;-74
2022/11/11 02:21:50;;;;;;;14.63;11.63;;;;;;;9.32;100.00;102791.84;5252347;28;20043;-75
2022/11/11 02:24:23;;;;;;;18.83;12.77;;;;;;;9.26;100.00;102787.63;5251049;28;20120;-74
2022/11/11 02:26:56;;;;;;;17.03;11.73;;;;;;;9.28;100.00;102785.84;5251465;28;20041;-75
2022/11/11 02:29:29;;;;;;;19.67;13.07;;;;;;;9.30;100.00;102777.97;5250999;28;20095;-75
2022/11/11 02:32:00;;;;;;;17.47;11.60;;;;;;;9.30;100.00;102772.75;5251990;28;20037;-75
2022/11/11 02:34:33;;;;;;;17.27;12.77;;;;;;;9.26;100.00;102764.09;5251826;28;20041;-74
2022/11/11 02:37:07;;;;;;;18.57;12.70;;;;;;;9.27;100.00;102775.41;5251824;28;20047;-75
2022/11/11 02:39:46;;;;;;;19.90;12.10;;;;;;;9.31;100.00;102770.09;5250562;28;20025;-75
2022/11/11 02:42:20;;;;;;;16.27;12.20;;;;;;;9.26;100.00;102771.09;5234155;28;20368;-75
2022/11/11 02:44:57;;;;;;;16.35;13.05;;;;;;;9.21;100.00;102773.81;5250839;28;20130;-75
2022/11/11 02:47:28;;;;;;;16.47;10.83;;;;;;;9.22;100.00;102778.13;5251066;28;20021;-75
2022/11/11 02:50:00;;;;;;;18.03;11.53;;;;;;;9.19;100.00;102760.78;5233522;28;20110;-75
2022/11/11 02:52:32;;;;;;;15.73;11.90;;;;;;;9.25;100.00;102772.00;5254495;28;20143;-74
2022/11/11 02:55:03;;;;;;;16.43;11.37;;;;;;;9.11;100.00;102761.84;5255972;28;20391;-74
2022/11/11 02:57:35;;;;;;;19.00;10.73;;;;;;;9.22;100.00;102774.66;5255975;28;20029;-75
2022/11/11 03:00:07;;;;;;;14.80;11.00;;;;;;;9.12;100.00;102753.09;5255094;28;20036;-75
2022/11/11 03:02:38;;;;;;;13.13;10.13;;;;;;;9.17;100.00;102751.25;5255655;28;20067;-74
2022/11/11 03:05:09;;;;;;;16.33;10.23;;;;;;;9.05;100.00;102748.03;5255206;28;20055;-75
2022/11/11 03:07:41;;;;;;;19.20;12.13;;;;;;;9.08;100.00;102747.06;5256105;28;20048;-75
2022/11/11 03:10:12;;;;;;;13.87;9.60;;;;;;;9.08;100.00;102749.69;5255003;28;20433;-75
2022/11/11 03:12:43;;;;;;;14.10;10.60;;;;;;;9.10;100.00;102760.97;5255491;28;20104;-73
2022/11/11 03:15:14;;;;;;;11.63;9.73;;;;;;;9.07;100.00;102748.00;5255167;28;20053;-74
2022/11/11 03:17:46;;;;;;;14.93;10.07;;;;;;;9.09;100.00;102738.38;5255578;28;20044;-74
2022/11/11 03:23:14;;;;;;;17.93;10.77;;;;;;;9.14;100.00;102760.03;5255424;28;20032;-74
2022/11/11 03:25:47;;;;;;;14.03;10.60;;;;;;;9.10;100.00;102755.75;5254401;28;20946;-74
2022/11/11 03:28:20;;;;;;;15.93;11.63;;;;;;;9.05;100.00;102766.31;5253689;28;20021;-75
2022/11/11 03:30:53;;;;;;;15.53;10.13;;;;;;;9.04;100.00;102763.75;5253197;28;20104;-74
2022/11/11 03:33:24;;;;;;;13.87;9.90;;;;;;;8.98;100.00;102764.72;5255459;28;20025;-74
2022/11/11 03:35:55;;;;;;;13.63;9.63;;;;;;;9.09;100.00;102772.34;5254043;28;20017;-74
2022/11/11 03:38:27;;;;;;;17.00;11.57;;;;;;;8.89;100.00;102762.31;5255680;28;20024;-74
2022/11/11 03:40:58;;;;;;;14.03;10.23;;;;;;;8.99;100.00;102769.06;5237159;28;20573;-74
2022/11/11 03:43:32;;;;;;;14.23;10.17;;;;;;;8.99;100.00;102768.22;5254334;28;20759;-74
2022/11/11 03:46:04;;;;;;;14.15;9.90;;;;;;;9.04;100.00;102771.59;5254836;28;20041;-74
2022/11/11 03:48:36;;;;;;;13.13;9.80;;;;;;;9.04;100.00;102771.59;5255234;28;20032;-73
2022/11/11 03:51:07;;;;;;;16.93;10.13;;;;;;;9.03;100.00;102769.84;5255302;28;20070;-73
2022/11/11 03:53:38;;;;;;;15.93;10.73;;;;;;;8.97;100.00;102754.31;5237064;28;20021;-73
2022/11/11 03:56:09;;;;;;;16.70;10.40;;;;;;;9.03;100.00;102764.63;5254967;28;20048;-72
2022/11/11 03:58:41;;;;;;;16.57;10.77;;;;;;;9.08;100.00;102765.38;5254717;28;20387;-74
2022/11/11 04:10:21;;;;;;;16.40;10.57;;;;;;;8.97;100.00;102755.19;5253359;28;20063;-73
2022/11/11 04:10:28;;;;;;;15.30;10.20;;;;;;;8.91;100.00;102766.63;5254987;28;20040;-74
2022/11/11 04:16:04;;;;;;;15.30;10.27;;;;;;;8.95;100.00;102772.66;5240606;28;20491;-74
2022/11/11 04:18:16;;;;;;;15.03;9.60;;;;;;;8.95;100.00;102773.47;5238453;28;20036;-74
2022/11/11 04:23:37;;;;;;;15.60;9.90;;;;;;;8.93;100.00;102780.53;5253956;28;20048;-74
2022/11/11 04:26:08;;;;;;;18.47;10.63;;;;;;;8.91;100.00;102773.59;5253385;28;20021;-74
2022/11/11 04:31:30;;;;;;;12.87;10.80;;;;;;;8.94;100.00;102782.22;5254480;28;20399;-74
2022/11/11 04:34:01;;;;;;;10.93;9.77;;;;;;;8.90;100.00;102784.94;5254184;28;20310;-74
2022/11/11 04:36:32;;;;;;;16.33;11.27;;;;;;;8.88;100.00;102782.38;5235086;28;20123;-74
2022/11/11 04:41:54;;;;;;;18.10;10.57;;;;;;;8.82;100.00;102778.13;5254218;28;20029;-74
2022/11/11 04:47:15;;;;;;;16.87;10.93;;;;;;;8.82;100.00;102779.88;5253221;28;20049;-74
2022/11/11 04:49:46;;;;;;;17.07;11.60;;;;;;;8.87;100.00;102780.63;5253620;28;20029;-75
2022/11/11 04:52:26;;;;;;;17.70;10.57;;;;;;;8.71;100.00;102773.13;5235394;28;20063;-74
2022/11/11 04:57:48;;;;;;;13.93;10.10;;;;;;;8.76;100.00;102782.63;5244497;28;20029;-73
2022/11/11 05:00:19;;;;;;;15.90;10.33;;;;;;;8.79;100.00;102772.09;5253652;28;20672;-74
2022/11/11 05:08:55;;;;;;;12.73;9.87;;;;;;;8.72;100.00;102776.59;5253885;28;20119;-73
2022/11/11 05:11:34;;;;;;;12.97;10.03;;;;;;;8.76;100.00;102774.78;5257847;28;20074;-73
2022/11/11 05:22:41;;;;;;;13.20;10.13;;;;;;;8.62;100.00;102773.34;5252930;28;20045;-73
2022/11/11 05:25:25;;;;;;;13.57;9.43;;;;;;;8.63;100.00;102782.00;5252775;28;20036;-74
2022/11/11 05:27:56;;;;;;;11.27;9.03;;;;;;;8.62;100.00;102782.91;5250388;28;20156;-74
2022/11/11 05:30:28;;;;;;;11.93;9.03;;;;;;;8.66;100.00;102781.94;5253102;28;20104;-74
2022/11/11 05:32:59;;;;;;;11.40;9.40;;;;;;;8.71;100.00;102780.97;5252931;28;20433;-74
2022/11/11 05:35:30;;;;;;;12.00;9.43;;;;;;;8.61;100.00;102797.72;5252377;28;20028;-74
2022/11/11 05:38:20;;;;;;;14.97;10.83;;;;;;;8.54;100.00;102796.06;5252811;28;20025;-74
2022/11/11 05:40:54;;;;;;;15.43;10.67;;;;;;;8.44;100.00;102785.84;5252161;28;20128;-74
2022/11/11 05:43:25;;;;;;;13.23;11.00;;;;;;;8.44;100.00;102788.44;5251508;28;20036;-74
2022/11/11 05:45:56;;;;;;;15.80;11.40;;;;;;;8.57;100.00;102793.47;5251829;28;20029;-74
2022/11/11 05:48:28;;;;;;;17.70;12.03;;;;;;;8.48;100.00;102791.84;5252707;28;20033;-74
2022/11/11 05:50:59;;;;;;;15.07;11.73;;;;;;;8.44;100.00;102783.22;5252860;28;20036;-74
2022/11/11 05:53:30;;;;;;;15.93;11.00;;;;;;;8.50;100.00;102781.38;5252078;28;20064;-74
2022/11/11 05:56:02;;;;;;;15.93;11.13;;;;;;;8.29;100.00;102786.13;5252863;28;20059;-74
2022/11/11 05:58:33;;;;;;;15.97;11.27;;;;;;;8.36;100.00;102779.88;5251726;28;20053;-73
2022/11/11 06:01:04;;;;;;;13.90;10.83;;;;;;;8.34;100.00;102789.50;5252527;28;20063;-74
2022/11/11 06:03:35;;;;;;;15.53;9.97;;;;;;;8.40;100.00;102788.50;5252334;28;20033;-74
2022/11/11 06:06:07;;;;;;;14.33;10.67;;;;;;;8.35;100.00;102788.59;5253408;28;20079;-73
2022/11/11 06:08:39;;;;;;;12.87;11.53;;;;;;;8.32;100.00;102799.13;5255355;28;20032;-74
2022/11/11 06:11:10;;;;;;;13.63;11.23;;;;;;;8.24;100.00;102801.84;5255874;28;20364;-74
2022/11/11 06:13:41;;;;;;;15.63;10.13;;;;;;;8.21;100.00;102797.56;5252921;28;20053;-74
2022/11/11 06:16:13;;;;;;;14.93;11.70;;;;;;;8.16;100.00;102799.41;5252239;28;20108;-74
2022/11/11 06:18:44;;;;;;;13.30;11.07;;;;;;;8.13;100.00;102794.25;5251898;28;20036;-74
2022/11/11 06:21:16;;;;;;;15.57;11.03;;;;;;;8.10;100.00;102802.09;5234527;28;20021;-74
2022/11/11 06:23:48;;;;;;;19.07;13.07;;;;;;;8.08;100.00;102809.97;5251004;28;20037;-73
2022/11/11 06:26:19;;;;;;;14.80;12.10;;;;;;;8.06;100.00;102813.50;5233392;28;20039;-73
2022/11/11 06:28:53;;;;;;;14.70;11.33;;;;;;;7.98;100.00;102811.88;5251292;28;20541;-73
2022/11/11 06:31:25;;;;;;;12.38;10.82;;;;;;;8.08;100.00;102816.94;5251261;28;20440;-73
2022/11/11 06:33:57;;;;;;;15.50;11.57;;;;;;;8.04;100.00;102815.28;5251900;28;20063;-74
2022/11/11 06:36:28;;;;;;;19.37;12.17;;;;;;;7.99;100.00;102812.75;5251841;28;20056;-74
2022/11/11 06:38:59;;;;;;;22.07;11.83;;;;;;;8.01;100.00;102823.16;5233612;28;20039;-75
2022/11/11 06:41:30;;;;;;;14.37;11.00;;;;;;;8.07;100.00;102833.47;5252174;28;20071;-76
2022/11/11 06:44:02;;;;;;;16.27;10.10;;;;;;;7.89;100.00;102827.69;5253290;28;20056;-77
2022/11/11 06:46:33;;;;;;;17.17;11.17;;;;;;;7.87;100.00;102819.03;5236380;28;20050;-76
2022/11/11 06:49:04;;;;;;;14.77;10.17;;;;;;;7.85;100.00;102829.47;5253430;28;20121;-76
2022/11/11 06:51:35;;;;;;;15.57;11.50;;;;;;;7.70;100.00;102833.19;5252963;28;20040;-75
2022/11/11 06:54:07;;;;;;;13.97;10.13;;;;;;;7.84;100.00;102835.59;5253969;28;20058;-75
2022/11/11 06:56:38;;;;;;;14.27;11.30;;;;;;;7.68;100.00;102831.50;5254407;28;20056;-75
2022/11/11 06:59:09;;;;;;;19.40;11.30;;;;;;;7.69;100.00;102834.09;5250022;28;20064;-75
2022/11/11 07:01:41;;;;;;;21.30;10.67;;;;;;;7.66;100.00;102810.69;5250573;28;20464;-75
2022/11/11 07:04:12;;;;;;;17.00;10.93;;;;;;;7.74;100.00;102834.88;5249540;28;20422;-75
2022/11/11 07:06:43;;;;;;;17.10;10.40;;;;;;;7.64;100.00;102830.69;5252186;28;20048;-74
2022/11/11 07:09:14;;;;;;;12.20;10.23;;;;;;;7.70;100.00;102820.16;5234372;28;20029;-74
2022/11/11 07:11:46;;;;;;;13.70;10.00;;;;;;;7.71;100.00;102824.50;5231260;28;20025;-74
2022/11/11 07:14:17;;;;;;;15.70;10.03;;;;;;;7.71;100.00;102832.34;5239880;28;20072;-74
2022/11/11 07:16:48;;;;;;;14.83;10.50;;;;;;;7.72;100.00;102836.66;5226000;28;20033;-74
2022/11/11 07:19:20;;;;;;;15.63;10.97;;;;;;;7.71;100.00;102836.69;5221446;28;20411;-74
2022/11/11 07:21:51;;;;;;;14.63;11.63;;;;;;;7.72;100.00;102839.25;5219186;28;20025;-75
2022/11/11 07:24:22;;;;;;;19.63;11.27;;;;;;;7.82;100.00;102846.94;5229648;28;20095;-75
2022/11/11 07:26:54;;;;;;;15.33;9.97;;;;;;;7.81;100.00;102855.63;5228773;28;20030;-75
2022/11/11 07:29:25;;;;;;;18.57;11.00;;;;;;;7.78;100.00;102859.19;5226728;28;20066;-75
2022/11/11 07:31:56;;;;;;;18.60;10.70;;;;;;;7.75;100.00;102857.47;5226978;28;20126;-75
2022/11/11 07:34:27;;;;;;;17.93;11.50;;;;;;;7.75;100.00;102851.38;5229925;28;20022;-75
2022/11/11 07:36:59;;;;;;;18.23;11.40;;;;;;;7.72;100.00;102854.91;5229230;28;20040;-75
2022/11/11 07:39:31;;;;;;;18.07;12.30;;;;;;;7.76;100.00;102860.94;5236234;28;20135;-74
2022/11/11 07:42:02;;;;;;;14.93;11.90;;;;;;;7.62;100.00;102866.34;5231550;28;20180;-74
2022/11/11 07:44:33;;;;;;;20.67;12.73;;;;;;;7.60;100.00;102860.31;5231412;28;20515;-74
2022/11/11 07:47:05;;;;;;;14.37;11.13;;;;;;;7.77;100.00;102848.78;5232138;28;20040;-75
2022/11/11 07:49:36;;;;;;;17.80;12.00;;;;;;;7.82;100.00;102866.06;5233529;28;20033;-75
2022/11/11 07:52:07;;;;;;;12.80;11.50;;;;;;;7.78;100.00;102866.13;5229513;28;20091;-75
2022/11/11 07:54:38;;;;;;;16.03;11.43;;;;;;;7.71;100.00;102861.03;5232819;28;20030;-75
2022/11/11 07:57:10;;;;;;;16.67;11.50;;;;;;;7.88;100.00;102880.75;5232527;28;20325;-75
2022/11/11 07:59:41;;;;;;;15.57;11.63;;;;;;;7.86;100.00;102888.59;5232308;28;20079;-74
2022/11/11 08:02:13;;;;;;;14.60;11.87;;;;;;;7.87;100.00;102894.69;5227558;28;20061;-75
2022/11/11 08:04:45;;;;;;;16.50;11.73;;;;;;;7.89;100.00;102874.63;5242018;28;20036;-75
2022/11/11 08:07:16;;;;;;;15.90;11.27;;;;;;;7.93;100.00;102886.75;5239900;28;20480;-75
2022/11/11 08:09:47;;;;;;;16.67;10.97;;;;;;;7.98;100.00;102894.50;5229048;28;20037;-74
2022/11/11 08:15:09;;;;;;;17.53;10.70;;;;;;;8.05;100.00;102905.72;5250343;28;20053;-74
2022/11/11 08:17:40;;;;;;;21.10;12.37;;;;;;;8.04;100.00;102901.38;5236003;28;20032;-75
2022/11/11 08:20:12;;;;;;;16.43;10.77;;;;;;;8.09;100.00;102903.03;5249303;28;20573;-74
2022/11/11 08:22:43;;;;;;;16.03;10.70;;;;;;;8.18;100.00;102911.59;5252992;28;20025;-75
2022/11/11 08:25:15;;;;;;;15.83;11.77;;;;;;;8.12;100.00;102904.72;5248908;28;20796;-75
2022/11/11 08:27:46;;;;;;;13.93;10.53;;;;;;;8.21;100.00;102912.41;5267263;28;20032;-75
2022/11/11 08:30:17;;;;;;;11.73;9.70;;;;;;;8.18;100.00;102909.88;5249007;28;20064;-74
2022/11/11 08:32:59;;;;;;;13.57;10.73;;;;;;;8.24;100.00;102916.72;5252579;28;20020;-75
2022/11/11 08:35:31;;;;;;;12.97;10.33;;;;;;;8.29;100.00;102914.06;5260891;28;20029;-76
2022/11/11 08:38:02;;;;;;;16.50;11.57;;;;;;;8.33;100.00;102926.16;5251475;28;20040;-76
2022/11/11 08:40:34;;;;;;;16.00;9.90;;;;;;;8.39;100.00;102936.50;5249733;28;20464;-77
2022/11/11 08:43:05;;;;;;;15.83;10.70;;;;;;;8.38;100.00;102929.53;5252065;28;20041;-77
2022/11/11 08:45:36;;;;;;;12.77;10.47;;;;;;;8.44;100.00;102923.38;5253130;28;20068;-77
2022/11/11 08:48:11;;;;;;;16.90;12.67;;;;;;;8.43;100.00;102934.72;5253515;28;20040;-89
2022/11/11 08:50:42;;;;;;;12.27;9.43;;;;;;;8.60;100.00;102947.50;5247509;28;20036;-80
2022/11/11 08:53:14;;;;;;;11.63;9.93;;;;;;;8.62;100.00;102940.50;5252971;28;20029;-81
2022/11/11 08:55:45;;;;;;;12.80;9.07;;;;;;;8.65;100.00;102947.41;5244773;28;20037;-80
2022/11/11 08:58:16;;;;;;;11.37;8.60;;;;;;;8.45;100.00;102925.06;5245641;28;20033;-88
2022/11/11 09:00:47;;;;;;;12.07;9.23;;;;;;;8.65;100.00;102952.63;5247625;28;20033;-80
2022/11/11 09:03:19;;;;;;;11.27;8.73;;;;;;;8.72;100.00;102941.19;5247918;28;20041;-89
2022/11/11 09:05:50;;;;;;;11.10;8.77;;;;;;;8.75;100.00;102938.50;5264393;28;20037;-79
2022/11/11 09:08:21;;;;;;;11.60;8.80;;;;;;;8.77;100.00;102933.25;5248604;28;20511;-80
2022/11/11 09:10:53;;;;;;;11.53;8.80;;;;;;;8.87;100.00;102932.19;5245652;28;20035;-78
2022/11/11 09:13:24;;;;;;;9.13;7.30;;;;;;;8.93;100.00;102941.69;5246799;28;20091;-80
2022/11/11 09:15:56;;;;;;;9.63;7.57;;;;;;;9.02;100.00;102946.75;5246538;28;20048;-77
2022/11/11 09:18:30;;;;;;;10.80;7.37;;;;;;;9.18;100.00;102947.28;5245559;28;20365;-77
2022/11/11 09:21:02;;;;;;;10.10;6.40;;;;;;;9.55;100.00;102950.03;5245216;28;20025;-75
2022/11/11 09:23:34;;;;;;;9.07;6.30;;;;;;;10.25;100.00;102939.72;5231184;28;20406;-78
2022/11/11 09:26:05;;;;;;;12.97;6.13;;;;;;;10.63;100.00;102944.91;5247879;28;20021;-78
2022/11/11 09:28:36;;;;;;;7.77;6.63;;;;;;;11.13;100.00;102938.34;5246081;28;20124;-78
2022/11/11 09:31:08;;;;;;;9.03;5.60;;;;;;;11.77;100.00;102949.56;5245537;28;20029;-76
2022/11/11 09:33:39;;;;;;;10.37;6.00;;;;;;;12.06;100.00;102939.88;5247328;28;20028;-78
2022/11/11 09:36:10;;;;;;;10.67;6.27;;;;;;;11.68;100.00;102928.84;5248804;28;20032;-77
2022/11/11 09:38:41;;;;;;;8.90;6.00;;;;;;;11.81;100.00;102943.31;5250183;28;20082;-78
2022/11/11 09:41:20;;;;;;;10.03;5.53;;;;;;;11.80;100.00;102943.38;5244847;28;20028;-76
2022/11/11 09:43:56;;;;;;;8.13;5.53;;;;;;;11.65;100.00;102939.44;5246806;28;20410;-81
2022/11/11 09:46:57;;;;;;;7.00;5.30;;;;;;;11.60;100.00;102952.72;5249103;28;20127;-78
2022/11/11 09:49:51;;;;;;;7.73;5.70;;;;;;;11.48;100.00;102953.94;5246839;28;20045;-77
2022/11/11 09:52:30;;;;;;;10.47;5.20;;;;;;;11.19;100.00;102963.53;5247193;28;20025;-78
2022/11/11 09:55:25;;;;;;;8.77;5.60;;;;;;;11.30;100.00;102966.69;5246028;28;20266;-76
2022/11/11 09:58:03;;;;;;;7.45;5.15;;;;;;;11.15;100.00;102954.88;5219058;28;20067;-80
2022/11/11 10:00:36;;;;;;;6.23;5.03;;;;;;;11.00;100.00;102964.03;5244209;28;20119;-76
2022/11/11 10:03:21;;;;;;;7.65;6.05;;;;;;;11.04;100.00;102956.94;5242200;28;20067;-77
2022/11/11 10:06:02;;;;;;;9.10;6.25;;;;;;;10.99;100.00;102951.81;5244893;28;20033;-74
2022/11/11 10:08:48;;;;;;;6.87;5.10;;;;;;;11.00;100.00;102964.88;5249212;28;20037;-78
2022/11/11 10:11:28;;;;;;;9.57;5.73;;;;;;;10.82;100.00;102958.38;5242137;28;20029;-73
2022/11/11 10:13:59;;;;;;;7.13;5.27;;;;;;;10.87;100.00;102964.34;5244733;28;20132;-76
2022/11/11 10:16:53;;;;;;;10.37;5.57;;;;;;;10.93;100.00;102972.94;5247186;28;20032;-78
2022/11/11 10:19:43;;;;;;;7.93;6.00;;;;;;;11.00;100.00;102969.25;5250001;28;20021;-71
2022/11/11 10:22:35;;;;;;;8.50;4.87;;;;;;;11.04;100.00;102968.28;5242431;28;20055;-73
2022/11/11 10:25:12;;;;;;;6.07;5.17;;;;;;;11.01;100.00;102963.97;5244275;28;20037;-74
2022/11/11 10:27:45;;;;;;;12.10;5.13;;;;;;;11.05;100.00;102961.28;5243005;28;20065;-74
2022/11/11 10:30:26;;;;;;;9.85;5.30;;;;;;;11.15;100.00;102964.50;5242896;28;20059;-74
2022/11/11 10:33:03;;;;;;;7.30;4.73;;;;;;;11.12;100.00;102973.31;5251367;28;20025;-74
2022/11/11 10:35:37;;;;;;;5.97;4.57;;;;;;;11.10;100.00;102952.38;5252054;28;20025;-74
2022/11/11 10:38:20;;;;;;;6.17;4.50;;;;;;;11.24;100.00;102969.50;5233051;28;20020;-74
2022/11/11 10:41:00;;;;;;;6.10;4.47;;;;;;;11.32;100.00;102964.88;5245145;28;20615;-76
2022/11/11 10:43:31;;;;;;;10.20;4.57;;;;;;;11.30;100.00;102966.69;5244897;28;20041;-75
2022/11/11 10:46:18;;;;;;;6.70;4.50;;;;;;;11.41;100.00;102965.53;5251485;28;20528;-76
2022/11/11 10:49:11;;;;;;;6.80;4.10;;;;;;;11.48;100.00;102964.44;5249766;28;20582;-75
2022/11/11 10:51:48;;;;;;;4.97;4.20;;;;;;;11.60;100.00;102969.31;5249615;28;20761;-76
2022/11/11 10:54:31;;;;;;;6.87;4.03;;;;;;;11.61;100.00;102967.53;5252349;28;20100;-78
2022/11/11 10:57:15;;;;;;;6.10;4.13;;;;;;;11.66;100.00;102957.75;5250703;28;20078;-74
2022/11/11 10:59:54;;;;;;;10.63;4.47;;;;;;;11.76;100.00;102960.97;5233669;28;20033;-75
2022/11/11 11:02:34;;;;;;;5.87;4.27;;;;;;;11.74;100.00;102962.78;5252270;28;20404;-75
2022/11/11 11:05:30;;;;;;;4.07;2.97;;;;;;;11.81;100.00;102961.69;5248525;28;20503;-75
2022/11/11 11:08:11;;;;;;;3.93;3.13;;;;;;;11.89;100.00;102956.19;5251299;28;20112;-75
2022/11/11 11:10:58;;;;;;;4.23;3.10;;;;;;;11.99;100.00;102951.50;5248847;28;20442;-73
2022/11/11 11:13:42;;;;;;;5.53;3.17;;;;;;;11.97;100.00;102945.47;5269437;28;20076;-76
2022/11/11 11:16:21;;;;;;;5.57;2.97;;;;;;;12.02;100.00;102948.78;5237148;28;20017;-78
2022/11/11 11:19:22;;;;;;;8.93;3.10;;;;;;;12.12;100.00;102946.75;5238745;28;20059;-73
2022/11/11 11:21:59;;;;;;;4.37;2.93;;;;;;;12.09;100.00;102945.09;5251318;28;20672;-74
2022/11/11 11:24:38;;;;;;;9.10;2.80;;;;;;;12.10;100.00;102946.81;5256353;28;20469;-73
2022/11/11 11:27:09;;;;;;;4.97;2.27;;;;;;;12.17;100.00;102949.22;5254348;28;20486;-74
2022/11/11 11:29:43;;;;;;;4.97;2.90;;;;;;;12.16;100.00;102955.41;5255657;28;20029;-74
2022/11/11 11:32:16;;;;;;;3.63;2.60;;;;;;;12.19;100.00;102942.16;5234963;28;20025;-73
2022/11/11 11:34:48;;;;;;;4.03;2.10;;;;;;;12.26;100.00;102950.69;5270916;28;20036;-72
2022/11/11 11:37:24;;;;;;;5.20;2.20;;;;;;;12.12;100.00;102951.13;5255490;28;20033;-74
2022/11/11 11:40:06;;;;;;;4.13;2.00;;;;;;;12.13;100.00;102948.47;5251868;28;20037;-74
2022/11/11 11:42:38;;;;;;;5.63;2.33;;;;;;;12.15;100.00;102941.38;5255324;28;20033;-75
2022/11/11 11:45:32;;;;;;;3.40;1.93;;;;;;;12.21;100.00;102940.34;5255110;28;20033;-73
2022/11/11 11:48:26;;;;;;;3.83;1.50;;;;;;;12.26;100.00;102946.31;5255453;28;20086;-73
2022/11/11 11:51:27;;;;;;;3.92;1.67;;;;;;;12.31;100.00;102941.75;5270820;28;20025;-73
2022/11/11 11:54:04;;;;;;;2.80;1.67;;;;;;;12.22;100.00;102939.41;5265005;28;20029;-76
2022/11/11 11:56:39;;;;;;;7.47;1.67;;;;;;;12.29;100.00;102925.16;5258178;28;20056;-74
2022/11/11 11:59:21;;;;;;;3.07;1.73;;;;;;;12.34;100.00;102938.16;5257645;28;20035;-72
2022/11/11 12:02:05;;;;;;;6.47;1.87;;;;;;;12.51;100.00;102939.34;5238194;28;20097;-73
2022/11/11 12:05:01;;;;;;;15.20;6.17;;;;;;;12.45;100.00;102932.53;5257854;28;20040;-72
2022/11/11 12:08:10;;;;;;;4.37;1.83;;;;;;;12.60;100.00;102932.94;5270057;28;20124;-72
2022/11/11 12:10:54;;;;;;;3.70;2.20;;;;;;;12.64;100.00;102931.88;5271864;28;20028;-72
2022/11/11 12:13:55;;;;;;;3.00;1.50;;;;;;;12.58;100.00;102925.94;5257086;28;20128;-72
2022/11/11 12:16:39;;;;;;;4.87;1.60;;;;;;;12.67;100.00;102923.91;5244021;28;20037;-73
2022/11/11 12:19:27;;;;;;;4.97;1.70;;;;;;;12.64;100.00;102921.38;5269093;28;20036;-73
2022/11/11 12:22:31;;;;;;;3.00;1.90;;;;;;;12.62;100.00;102921.44;5261067;28;20459;-72
2022/11/11 12:25:44;;;;;;;2.80;1.47;;;;;;;12.67;100.00;102918.66;5221922;28;20542;-70
2022/11/11 12:28:27;;;;;;;4.10;1.23;;;;;;;12.70;100.00;102919.41;5220105;28;20041;-70
2022/11/11 12:31:13;;;;;;;3.13;1.50;;;;;;;12.66;100.00;102920.41;5258229;28;20033;-70
2022/11/11 12:33:56;;;;;;;3.10;1.30;;;;;;;12.63;100.00;102902.13;5269067;28;20036;-74
2022/11/11 12:36:48;;;;;;;2.53;1.37;;;;;;;12.62;100.00;102900.41;5256533;28;20451;-74
2022/11/11 12:39:53;;;;;;;4.47;1.30;;;;;;;12.72;100.00;102916.72;5259371;28;20535;-70
2022/11/11 12:42:38;;;;;;;2.70;1.33;;;;;;;12.62;100.00;102895.13;5258610;28;20025;-71
2022/11/11 12:45:17;;;;;;;1.97;1.10;;;;;;;12.68;100.00;102904.59;5258922;28;20131;-72
2022/11/11 12:48:27;;;;;;;3.47;1.87;;;;;;;12.66;100.00;102888.88;5258694;28;20543;-74
2022/11/11 12:51:26;;;;;;;4.17;1.57;;;;;;;12.78;100.00;102908.59;5247351;28;20041;-72
2022/11/11 12:54:35;;;;;;;4.00;1.20;;;;;;;12.80;100.00;102909.41;5256922;28;20056;-71
2022/11/11 12:57:27;;;;;;;4.63;1.50;;;;;;;12.71;100.00;102893.94;5235956;28;20029;-71
2022/11/11 13:00:15;;;;;;;5.20;1.73;;;;;;;12.79;100.00;102910.31;5219574;28;20388;-73